Litchfield, New Hampshire
Current Conditions -  °F | °C
As of 12:53 AM on Monday 26 Jan 2015 (Local Time) from KMHT Reporting Station
Scattered Clouds Scattered Clouds  
Wind Chill: -1°   Ceiling: Unl
Heat Index: 11°   Visibility: 10mi
Dew Point: -3°   Wind: 8mph
Humidity: 54%   Direction: 320°NW
Pressure: 30.07"   Gusts: NA
Location:  42.84°N, 71.48°W
Report Text: KMHT 260553Z 32007KT 10SM SCT190 M12/M19 A3007 RMK AO2 SLP203 4/003 T11171194 11050 21117 51024
Loading
Personal Weather Stations






























Interactive Weather Map New forecast layout! Learn more

10-Day Weather Forecast

Advertisements
Track Severe Weather on mobile